»·PEaware :: N144PW CYVR-CYXT

N144PW :: CYVR-CYXT

FLIGHT INFORMATION

Flight Status: Arrived
Operator: Privately registered:
United States
More flights under this callsign
Pilot: Stacy K. (11621)
Aircraft: CESSNA 404 TITAN
(C404)
More flights by this aircraft type
Origin: CYVR Vancouver Intl
Canada
Destination: CYXT Terrace
Canada
More flights between these airports :: More routes between these airports
Route: VFR
File this flight plan on PilotEdge
Remarks:
Altitude:
(Current/Filed)
10,500ft
Speed:
(Current/Filed)
180kts
Departed: 07-Aug-17 03:35 PM
Arrived: 07-Aug-17 05:51 PM
Distance/Time
Traveled:
374nm/2:16
Distance/Time
To Go:
Arrived

Flight Plot

Page will automatically refresh every two minutes.

Flight plan parsing failed; only flown route is shown


Map Options




Map Legend


Flown Route
Filed Route
Departure Airport
Arrival Airport
Navaid (VOR, NDB)
Fix

Horizontal Profiles

Position Reports

Time Latitude Longitude Heading Altitude Ground
Speed
07-Aug-17 15:28 49.188725 -123.166217 9 18ft 0kts
07-Aug-17 15:29 49.188725 -123.166217 9 18ft 0kts
07-Aug-17 15:30 49.188725 -123.166217 9 18ft 0kts
07-Aug-17 15:31 49.188725 -123.166217 9 18ft 0kts
07-Aug-17 15:32 49.188725 -123.166217 9 18ft 0kts
07-Aug-17 15:33 49.188725 -123.166217 9 18ft 0kts
07-Aug-17 15:34 49.188641 -123.166170 143 18ft 3kts
07-Aug-17 15:35 49.187274 -123.164403 122 18ft 6kts
07-Aug-17 15:36 49.185353 -123.160638 173 18ft 0kts
07-Aug-17 15:37 49.185088 -123.160656 187 18ft 9kts
07-Aug-17 15:38 49.187423 -123.185150 279 467ft 105kts
07-Aug-17 15:39 49.182171 -123.231644 252 2022ft 125kts
07-Aug-17 15:40 49.165320 -123.289199 229 2944ft 175kts
07-Aug-17 15:41 49.154250 -123.354971 301 3936ft 181kts
07-Aug-17 15:42 49.182427 -123.419919 301 4939ft 185kts
07-Aug-17 15:43 49.208339 -123.484268 301 5893ft 187kts
07-Aug-17 15:44 49.235269 -123.552590 300 6893ft 186kts
07-Aug-17 15:45 49.261613 -123.620453 300 7888ft 185kts
07-Aug-17 15:46 49.287742 -123.687957 300 8886ft 182kts
07-Aug-17 15:47 49.313390 -123.754373 300 9882ft 180kts
07-Aug-17 15:48 49.340841 -123.825574 300 10509ft 210kts
07-Aug-17 15:49 49.371736 -123.906114 300 10519ft 222kts
07-Aug-17 15:50 49.403118 -123.988172 300 10521ft 223kts
07-Aug-17 15:51 49.434482 -124.070353 300 10524ft 223kts
07-Aug-17 15:52 49.465895 -124.152790 300 10527ft 223kts
07-Aug-17 15:53 49.497360 -124.234921 300 10530ft 223kts
07-Aug-17 15:54 49.528148 -124.317733 298 10534ft 223kts
07-Aug-17 15:55 49.558054 -124.401643 298 10536ft 223kts
07-Aug-17 15:56 49.587852 -124.485717 298 10537ft 223kts
07-Aug-17 15:57 49.617501 -124.569663 298 10535ft 223kts
07-Aug-17 15:58 49.647102 -124.653737 298 10534ft 223kts
07-Aug-17 15:59 49.676731 -124.738142 298 10532ft 223kts
07-Aug-17 16:00 49.706238 -124.822415 298 10530ft 223kts
07-Aug-17 16:01 49.735681 -124.906613 298 10529ft 222kts
07-Aug-17 16:02 49.767066 -124.990161 301 10532ft 229kts
07-Aug-17 16:03 49.800625 -125.072676 301 10533ft 229kts
07-Aug-17 16:04 49.834121 -125.154382 301 10530ft 223kts
07-Aug-17 16:05 49.867365 -125.235556 301 10530ft 222kts
07-Aug-17 16:06 49.900479 -125.316567 301 10530ft 222kts
07-Aug-17 16:07 49.933823 -125.398286 301 10531ft 224kts
07-Aug-17 16:08 49.966262 -125.480685 300 10531ft 223kts
07-Aug-17 16:09 49.998553 -125.562862 300 10533ft 223kts
07-Aug-17 16:10 50.031103 -125.645861 300 10537ft 227kts
07-Aug-17 16:11 50.063736 -125.729313 300 10539ft 225kts
07-Aug-17 16:12 50.096204 -125.812562 300 10541ft 225kts
07-Aug-17 16:13 50.128741 -125.896246 300 10546ft 225kts
07-Aug-17 16:14 50.161221 -125.980065 300 10554ft 228kts
07-Aug-17 16:15 50.193670 -126.064058 300 10558ft 225kts
07-Aug-17 16:16 50.225879 -126.147658 300 10566ft 223kts
07-Aug-17 16:17 50.257817 -126.230788 300 10580ft 223kts
07-Aug-17 16:18 50.289695 -126.313998 300 10590ft 223kts
07-Aug-17 16:19 50.321640 -126.397555 300 10600ft 223kts
07-Aug-17 16:20 50.353526 -126.480925 300 10610ft 223kts
07-Aug-17 16:21 50.385130 -126.564619 299 10620ft 223kts
07-Aug-17 16:22 50.416813 -126.648739 300 10627ft 223kts
07-Aug-17 16:23 50.448679 -126.732761 300 10635ft 226kts
07-Aug-17 16:24 50.480349 -126.817472 300 10641ft 224kts
07-Aug-17 16:25 50.512147 -126.901649 300 10646ft 224kts
07-Aug-17 16:26 50.543711 -126.985464 299 10197ft 222kts
07-Aug-17 16:27 50.574355 -127.068971 299 8994ft 218kts
07-Aug-17 16:28 50.619602 -127.122646 4 7801ft 209kts
07-Aug-17 16:29 50.638374 -127.055879 129 6609ft 202kts
07-Aug-17 16:30 50.591817 -127.034574 237 5415ft 195kts
07-Aug-17 16:31 50.597228 -127.116342 273 4239ft 191kts
07-Aug-17 16:32 50.599413 -127.199185 273 3050ft 188kts
07-Aug-17 16:33 50.603942 -127.278413 278 2360ft 166kts
07-Aug-17 16:34 50.624894 -127.331694 311 1973ft 136kts
07-Aug-17 16:35 50.651351 -127.368439 342 1390ft 134kts
07-Aug-17 16:36 50.680790 -127.371611 356 76ft 69kts
07-Aug-17 16:37 50.684179 -127.373733 201 75ft 0kts
07-Aug-17 16:38 50.684179 -127.373733 201 75ft 0kts
07-Aug-17 16:39 50.684179 -127.373733 201 75ft 0kts
07-Aug-17 16:40 50.683828 -127.374067 202 75ft 6kts
07-Aug-17 16:41 50.681205 -127.375880 199 75ft 10kts
07-Aug-17 16:42 50.679001 -127.371956 179 75ft 17kts
07-Aug-17 16:43 50.675938 -127.371667 358 75ft 11kts
07-Aug-17 16:44 50.697706 -127.371397 353 911ft 97kts
07-Aug-17 16:45 50.729677 -127.387783 341 2067ft 142kts
07-Aug-17 16:46 50.770923 -127.408292 341 3084ft 165kts
07-Aug-17 16:47 50.815962 -127.430287 342 4092ft 171kts
07-Aug-17 16:48 50.862434 -127.452986 342 5097ft 178kts
07-Aug-17 16:49 50.910200 -127.476314 342 6097ft 181kts
07-Aug-17 16:50 50.958781 -127.500052 342 7100ft 184kts
07-Aug-17 16:51 51.008144 -127.524232 342 8101ft 187kts
07-Aug-17 16:52 51.058375 -127.548897 342 9101ft 191kts
07-Aug-17 16:53 51.109577 -127.574087 342 10105ft 193kts
07-Aug-17 16:54 51.163400 -127.600725 341 10488ft 215kts
07-Aug-17 16:55 51.220374 -127.629035 342 10483ft 212kts
07-Aug-17 16:56 51.276819 -127.656981 342 10478ft 212kts
07-Aug-17 16:57 51.323869 -127.680316 342 10475ft 212kts
07-Aug-17 16:58 51.389848 -127.713117 342 10471ft 212kts
07-Aug-17 16:59 51.446310 -127.741267 342 10469ft 212kts
07-Aug-17 17:00 51.502732 -127.769465 342 10466ft 212kts
07-Aug-17 17:01 51.549952 -127.793117 342 10465ft 212kts
07-Aug-17 17:02 51.606376 -127.821445 342 10464ft 212kts
07-Aug-17 17:03 51.662764 -127.849827 342 10463ft 212kts
07-Aug-17 17:04 51.719355 -127.878382 342 10463ft 212kts
07-Aug-17 17:05 51.775775 -127.906918 342 10463ft 212kts
07-Aug-17 17:06 51.832354 -127.935603 342 10464ft 212kts
07-Aug-17 17:07 51.888383 -127.964045 342 10546ft 211kts
07-Aug-17 17:08 51.944685 -127.992718 342 10548ft 212kts
07-Aug-17 17:09 52.001299 -128.021588 342 10551ft 213kts
07-Aug-17 17:10 52.057907 -128.050475 342 10550ft 213kts
07-Aug-17 17:11 52.114392 -128.079210 342 10551ft 212kts
07-Aug-17 17:12 52.171181 -128.107456 344 10551ft 213kts
07-Aug-17 17:13 52.228969 -128.128131 348 10551ft 213kts
07-Aug-17 17:14 52.287163 -128.145640 349 10551ft 213kts
07-Aug-17 17:15 52.345658 -128.162631 349 10549ft 213kts
07-Aug-17 17:16 52.404056 -128.179501 349 10550ft 213kts
07-Aug-17 17:17 52.462491 -128.196405 349 10550ft 213kts
07-Aug-17 17:18 52.520991 -128.213345 349 10549ft 213kts
07-Aug-17 17:19 52.579257 -128.230265 349 10549ft 213kts
07-Aug-17 17:20 52.637551 -128.247242 349 10548ft 213kts
07-Aug-17 17:21 52.696103 -128.264344 349 10546ft 213kts
07-Aug-17 17:22 52.754540 -128.281470 349 10545ft 213kts
07-Aug-17 17:23 52.813051 -128.298657 349 10543ft 213kts
07-Aug-17 17:24 52.872111 -128.316080 349 10540ft 215kts
07-Aug-17 17:25 52.930735 -128.333374 349 10540ft 213kts
07-Aug-17 17:26 52.989291 -128.350697 349 10534ft 214kts
07-Aug-17 17:27 53.048111 -128.368163 349 10531ft 214kts
07-Aug-17 17:28 53.106691 -128.385598 349 10528ft 214kts
07-Aug-17 17:29 53.165210 -128.403051 348 10525ft 214kts
07-Aug-17 17:30 53.224013 -128.420652 348 10523ft 214kts
07-Aug-17 17:31 53.282657 -128.438255 349 10520ft 214kts
07-Aug-17 17:32 53.341233 -128.455873 348 10531ft 214kts
07-Aug-17 17:33 53.399860 -128.473559 348 10529ft 214kts
07-Aug-17 17:34 53.458706 -128.491356 348 10526ft 214kts
07-Aug-17 17:35 53.517476 -128.490359 13 10527ft 218kts
07-Aug-17 17:36 53.575940 -128.465042 13 10521ft 215kts
07-Aug-17 17:37 53.634406 -128.442074 11 10518ft 215kts
07-Aug-17 17:38 53.693203 -128.423561 4 10511ft 215kts
07-Aug-17 17:39 53.755330 -128.425979 353 9889ft 231kts
07-Aug-17 17:40 53.815230 -128.456089 329 9211ft 224kts
07-Aug-17 17:41 53.868685 -128.509436 331 8546ft 221kts
07-Aug-17 17:42 53.926332 -128.544567 339 7887ft 220kts
07-Aug-17 17:43 53.983351 -128.580138 345 7223ft 214kts
07-Aug-17 17:44 54.040080 -128.604373 345 6561ft 208kts
07-Aug-17 17:45 54.097489 -128.611993 357 5902ft 207kts
07-Aug-17 17:46 54.155018 -128.607860 9 5241ft 207kts
07-Aug-17 17:47 54.210879 -128.582447 13 4580ft 207kts
07-Aug-17 17:48 54.266632 -128.559844 8 3544ft 204kts
07-Aug-17 17:49 54.320965 -128.553180 349 2436ft 192kts
07-Aug-17 17:50 54.367228 -128.563915 351 2634ft 158kts
07-Aug-17 17:51 54.408411 -128.572813 350 1882ft 130kts
07-Aug-17 17:52 54.440142 -128.580278 350 1210ft 109kts
07-Aug-17 17:53 54.468383 -128.587254 350 718ft 83kts
07-Aug-17 17:54 54.473881 -128.584882 72 717ft 11kts
07-Aug-17 17:55 54.473779 -128.581859 107 717ft 0kts
07-Aug-17 17:56 54.473779 -128.581859 107 717ft 0kts
07-Aug-17 17:57 54.473779 -128.581859 107 717ft 0kts
07-Aug-17 17:58 54.473779 -128.581859 107 717ft 0kts

Navigation Log

Ident Type
Flight plan parsing failed, navigation log unavailable